Time;durP1;ratioP1;P1;durP2;ratioP2;P2;SDS_P1;SDS_P2;PMS_P1;PMS_P2;Temp;Humidity;BMP_temperature;BMP_pressure;BME280_temperature;BME280_humidity;BME280_pressure;Samples;Min_cycle;Max_cycle;Signal;HPM_P1;HPM_P2
2022/10/02 00:01:56;;;;;;;2.67;1.30;;;;;;;;;;5003435;28;20389;-78
2022/10/02 00:04:31;;;;;;;3.35;1.38;;;;;;;;;;4975919;28;20060;-77
2022/10/02 00:06:59;;;;;;;7.90;1.90;;;;;;;;;;4990511;28;20468;-77
2022/10/02 00:09:45;;;;;;;3.88;1.10;;;;;;;;;;4988292;28;20034;-77
2022/10/02 00:12:16;;;;;;;4.85;1.40;;;;;;;;;;4990272;28;20497;-77
2022/10/02 00:14:43;;;;;;;4.95;1.50;;;;;;;;;;4974748;28;20062;-78
2022/10/02 00:17:17;;;;;;;4.88;1.27;;;;;;;;;;4970276;28;20084;-77
2022/10/02 00:19:43;;;;;;;2.40;0.95;;;;;;;;;;4977468;28;20034;-77
2022/10/02 00:22:33;;;;;;;3.50;1.10;;;;;;;;;;4969545;28;20513;-78
2022/10/02 00:25:01;;;;;;;5.35;1.30;;;;;;;;;;4988592;28;20058;-77
2022/10/02 00:27:37;;;;;;;4.38;1.27;;;;;;;;;;5002982;28;20579;-77
2022/10/02 00:30:04;;;;;;;4.15;1.20;;;;;;;;;;4990005;28;20088;-77
2022/10/02 00:32:51;;;;;;;4.10;1.05;;;;;;;;;;4970497;28;20112;-77
2022/10/02 00:35:35;;;;;;;6.32;1.63;;;;;;;;;;5005013;28;20130;-78
2022/10/02 00:38:18;;;;;;;4.82;1.45;;;;;;;;;;5003527;28;20038;-78
2022/10/02 00:40:46;;;;;;;8.98;1.30;;;;;;;;;;4971555;28;20056;-77
2022/10/02 00:43:23;;;;;;;3.70;1.10;;;;;;;;;;5003982;28;20049;-78
2022/10/02 00:46:30;;;;;;;6.22;1.52;;;;;;;;;;4988328;28;20131;-77
2022/10/02 00:49:26;;;;;;;3.90;1.45;;;;;;;;;;4936563;28;20087;-77
2022/10/02 00:51:51;;;;;;;4.07;1.20;;;;;;;;;;5002605;28;20046;-77
2022/10/02 00:54:21;;;;;;;6.33;1.27;;;;;;;;;;5004582;28;20109;-77
2022/10/02 00:57:05;;;;;;;5.45;1.52;;;;;;;;;;4988247;28;20268;-77
2022/10/02 00:59:40;;;;;;;5.43;1.40;;;;;;;;;;5003667;28;20053;-78
2022/10/02 01:02:30;;;;;;;2.47;1.08;;;;;;;;;;4967617;28;20486;-77
2022/10/02 01:04:57;;;;;;;5.28;1.30;;;;;;;;;;4993443;28;20060;-77
2022/10/02 01:07:26;;;;;;;4.50;1.58;;;;;;;;;;4983709;28;20477;-77
2022/10/02 01:09:52;;;;;;;5.45;1.40;;;;;;;;;;4988470;28;20583;-77
2022/10/02 01:12:18;;;;;;;4.45;1.33;;;;;;;;;;4973593;28;20030;-77
2022/10/02 01:14:43;;;;;;;3.17;0.98;;;;;;;;;;4985750;28;20588;-77
2022/10/02 01:17:24;;;;;;;4.90;1.30;;;;;;;;;;4972740;28;20038;-77
2022/10/02 01:19:49;;;;;;;4.70;1.02;;;;;;;;;;4973651;28;20458;-78
2022/10/02 01:22:29;;;;;;;4.68;1.50;;;;;;;;;;4986750;28;20061;-77
2022/10/02 01:24:59;;;;;;;5.50;1.65;;;;;;;;;;4987383;28;20092;-77
2022/10/02 01:27:26;;;;;;;5.82;1.40;;;;;;;;;;4986398;28;20038;-77
2022/10/02 01:29:59;;;;;;;6.00;1.52;;;;;;;;;;4972673;28;20034;-77
2022/10/02 01:32:25;;;;;;;11.57;1.92;;;;;;;;;;4982774;28;20354;-77
2022/10/02 01:34:51;;;;;;;5.40;1.30;;;;;;;;;;4981278;28;20117;-77
2022/10/02 01:37:17;;;;;;;4.70;1.30;;;;;;;;;;4990148;28;20058;-78
2022/10/02 01:39:43;;;;;;;4.47;1.35;;;;;;;;;;4976811;28;20057;-77
2022/10/02 01:42:09;;;;;;;4.57;1.35;;;;;;;;;;5002782;28;20033;-77
2022/10/02 01:44:34;;;;;;;7.18;1.60;;;;;;;;;;4973844;28;20449;-77
2022/10/02 01:47:14;;;;;;;7.18;1.50;;;;;;;;;;4988594;28;20037;-77
2022/10/02 01:50:20;;;;;;;3.60;1.15;;;;;;;;;;4988723;28;20338;-77
2022/10/02 01:53:04;;;;;;;3.80;1.20;;;;;;;;;;4985345;28;20053;-77
2022/10/02 01:55:44;;;;;;;4.22;1.10;;;;;;;;;;5002198;28;20106;-77
2022/10/02 01:58:28;;;;;;;4.18;0.95;;;;;;;;;;4989237;28;22016;-77
2022/10/02 02:01:08;;;;;;;4.97;1.20;;;;;;;;;;4987283;28;20038;-78
2022/10/02 02:03:38;;;;;;;4.47;1.40;;;;;;;;;;5001662;28;20510;-77
2022/10/02 02:06:45;;;;;;;5.32;1.35;;;;;;;;;;4985644;28;20038;-78
2022/10/02 02:09:14;;;;;;;5.82;1.38;;;;;;;;;;5001186;28;20058;-78
2022/10/02 02:11:44;;;;;;;4.22;1.17;;;;;;;;;;5002131;28;20046;-77
2022/10/02 02:14:09;;;;;;;4.45;1.52;;;;;;;;;;4987375;28;20080;-78
2022/10/02 02:16:45;;;;;;;5.10;1.33;;;;;;;;;;5002883;28;20065;-78
2022/10/02 02:19:17;;;;;;;4.95;1.50;;;;;;;;;;4967263;28;20672;-77
2022/10/02 02:21:47;;;;;;;5.65;1.35;;;;;;;;;;4973873;28;20561;-77
2022/10/02 02:24:23;;;;;;;5.25;1.38;;;;;;;;;;4987094;28;20145;-78
2022/10/02 02:26:51;;;;;;;4.53;1.58;;;;;;;;;;4986745;28;20609;-78
2022/10/02 02:29:17;;;;;;;5.03;1.45;;;;;;;;;;4977717;28;20037;-77
2022/10/02 02:31:48;;;;;;;6.63;1.55;;;;;;;;;;4966319;28;20430;-77
2022/10/02 02:34:19;;;;;;;6.60;1.50;;;;;;;;;;4976400;28;20354;-77
2022/10/02 02:36:47;;;;;;;6.03;1.60;;;;;;;;;;4985989;28;20037;-77
2022/10/02 02:39:18;;;;;;;5.30;1.48;;;;;;;;;;4976392;28;20026;-77
2022/10/02 02:41:48;;;;;;;6.15;1.55;;;;;;;;;;4987451;28;20496;-77
2022/10/02 02:44:17;;;;;;;6.53;1.58;;;;;;;;;;4988686;28;20437;-77
2022/10/02 02:47:04;;;;;;;4.60;1.17;;;;;;;;;;4984419;28;20116;-78
2022/10/02 02:49:36;;;;;;;5.63;1.58;;;;;;;;;;4972705;28;20485;-77
2022/10/02 02:52:04;;;;;;;5.38;1.60;;;;;;;;;;5003682;28;20139;-77
2022/10/02 02:54:34;;;;;;;3.60;1.20;;;;;;;;;;4973788;28;20118;-77
2022/10/02 02:57:00;;;;;;;3.28;1.13;;;;;;;;;;4970922;28;20055;-77
2022/10/02 02:59:27;;;;;;;6.05;1.60;;;;;;;;;;4985834;28;20033;-77
2022/10/02 03:01:53;;;;;;;8.38;1.65;;;;;;;;;;4969597;28;20034;-77
2022/10/02 03:04:18;;;;;;;4.68;1.30;;;;;;;;;;4987637;28;20038;-78
2022/10/02 03:06:46;;;;;;;5.18;1.60;;;;;;;;;;4971493;28;20070;-78
2022/10/02 03:09:14;;;;;;;4.75;1.52;;;;;;;;;;4971165;28;20045;-77
2022/10/02 03:12:03;;;;;;;5.32;1.30;;;;;;;;;;4988989;28;20405;-78
2022/10/02 03:14:56;;;;;;;3.33;1.40;;;;;;;;;;4987773;28;20503;-77
2022/10/02 03:17:55;;;;;;;3.83;1.38;;;;;;;;;;5000133;28;20440;-77
2022/10/02 03:20:51;;;;;;;5.25;1.40;;;;;;;;;;4999840;28;20053;-77
2022/10/02 03:23:22;;;;;;;6.85;1.50;;;;;;;;;;4975695;28;20045;-77
2022/10/02 03:26:08;;;;;;;6.75;1.73;;;;;;;;;;4999056;28;20492;-77
2022/10/02 03:28:41;;;;;;;4.93;1.30;;;;;;;;;;4987544;28;20069;-77
2022/10/02 03:31:08;;;;;;;5.45;1.63;;;;;;;;;;4980700;28;20038;-77
2022/10/02 03:33:35;;;;;;;4.47;1.50;;;;;;;;;;4975276;28;20038;-77
2022/10/02 03:36:00;;;;;;;4.67;1.93;;;;;;;;;;4974655;28;20343;-77
2022/10/02 03:38:27;;;;;;;7.35;1.55;;;;;;;;;;4992455;28;20128;-78
2022/10/02 03:40:56;;;;;;;6.93;1.70;;;;;;;;;;4972088;28;20458;-77
2022/10/02 03:43:24;;;;;;;4.55;1.48;;;;;;;;;;4989881;28;20036;-77
2022/10/02 03:45:49;;;;;;;6.20;1.65;;;;;;;;;;4972680;28;20818;-77
2022/10/02 03:48:15;;;;;;;7.38;1.48;;;;;;;;;;4988172;28;20042;-77
2022/10/02 03:50:41;;;;;;;4.88;1.70;;;;;;;;;;4991056;28;20033;-78
2022/10/02 03:53:13;;;;;;;4.15;1.33;;;;;;;;;;4988117;28;20041;-78
2022/10/02 03:55:41;;;;;;;3.85;1.30;;;;;;;;;;4989883;28;20101;-78
2022/10/02 03:58:15;;;;;;;8.35;1.55;;;;;;;;;;4973152;28;20049;-77
2022/10/02 04:00:49;;;;;;;3.92;1.27;;;;;;;;;;4992102;28;20107;-78
2022/10/02 04:03:20;;;;;;;3.88;1.77;;;;;;;;;;4990930;28;20045;-77
2022/10/02 04:05:52;;;;;;;3.60;1.23;;;;;;;;;;4988081;28;20459;-79
2022/10/02 04:08:21;;;;;;;3.85;1.40;;;;;;;;;;4986358;28;20045;-77
2022/10/02 04:11:15;;;;;;;3.40;1.13;;;;;;;;;;4993492;28;20038;-77
2022/10/02 04:13:48;;;;;;;4.55;1.67;;;;;;;;;;4991683;28;20049;-77
2022/10/02 04:16:17;;;;;;;4.40;1.17;;;;;;;;;;4991763;28;20049;-77
2022/10/02 04:19:09;;;;;;;3.10;1.02;;;;;;;;;;4974176;28;20080;-77
2022/10/02 04:21:53;;;;;;;4.68;1.20;;;;;;;;;;4975878;28;20089;-78
2022/10/02 04:25:00;;;;;;;5.00;1.25;;;;;;;;;;4989474;28;20489;-77
2022/10/02 04:27:35;;;;;;;4.32;1.15;;;;;;;;;;4957120;28;20033;-78
2022/10/02 04:30:08;;;;;;;5.20;1.50;;;;;;;;;;4989405;28;20053;-78
2022/10/02 04:32:35;;;;;;;3.45;1.20;;;;;;;;;;4981217;28;20125;-78
2022/10/02 04:35:01;;;;;;;4.55;1.45;;;;;;;;;;4986170;28;20080;-77
2022/10/02 04:37:30;;;;;;;7.28;1.33;;;;;;;;;;4987834;28;20053;-78
2022/10/02 04:40:06;;;;;;;4.32;0.90;;;;;;;;;;5003928;28;20045;-78
2022/10/02 04:43:09;;;;;;;3.63;1.30;;;;;;;;;;4988912;28;20113;-78
2022/10/02 04:45:51;;;;;;;4.10;1.15;;;;;;;;;;5001555;28;20038;-77
2022/10/02 04:48:59;;;;;;;3.38;1.23;;;;;;;;;;5002571;28;20623;-78
2022/10/02 04:51:24;;;;;;;2.70;0.80;;;;;;;;;;4972737;28;20038;-77
2022/10/02 04:54:36;;;;;;;3.05;1.10;;;;;;;;;;4988570;28;20107;-78
2022/10/02 04:57:38;;;;;;;4.30;1.10;;;;;;;;;;4926189;28;20489;-77
2022/10/02 05:00:17;;;;;;;3.83;1.20;;;;;;;;;;4987680;28;20112;-78
2022/10/02 05:03:04;;;;;;;4.53;1.00;;;;;;;;;;5004688;28;20038;-78
2022/10/02 05:05:33;;;;;;;;;;;;;;;;;;5004167;28;20092;-77
2022/10/02 05:08:11;;;;;;;4.60;0.98;;;;;;;;;;5005273;28;19929;-77
2022/10/02 05:11:23;;;;;;;3.97;1.10;;;;;;;;;;5003365;28;20041;-77
2022/10/02 05:13:56;;;;;;;4.32;0.90;;;;;;;;;;4978617;28;20049;-78
2022/10/02 05:16:24;;;;;;;2.90;0.98;;;;;;;;;;5005236;28;20308;-78
2022/10/02 05:18:58;;;;;;;3.42;1.17;;;;;;;;;;5000839;28;20124;-78
2022/10/02 05:21:35;;;;;;;5.38;1.17;;;;;;;;;;4971106;28;20041;-78
2022/10/02 05:24:27;;;;;;;3.75;1.15;;;;;;;;;;5001603;28;20381;-78
2022/10/02 05:27:13;;;;;;;3.20;0.80;;;;;;;;;;4971724;28;20092;-77
2022/10/02 05:30:01;;;;;;;4.45;1.10;;;;;;;;;;5005265;28;20038;-77
2022/10/02 05:32:47;;;;;;;4.47;1.30;;;;;;;;;;5000359;28;20045;-78
2022/10/02 05:35:22;;;;;;;4.32;1.63;;;;;;;;;;5003467;28;20041;-78
2022/10/02 05:37:53;;;;;;;3.10;0.90;;;;;;;;;;5002543;28;20045;-77
2022/10/02 05:40:25;;;;;;;3.33;1.02;;;;;;;;;;4985634;28;20038;-78
2022/10/02 05:43:05;;;;;;;5.88;1.30;;;;;;;;;;4989126;28;20520;-78
2022/10/02 05:46:01;;;;;;;4.40;1.02;;;;;;;;;;5003124;28;20525;-77
2022/10/02 05:48:32;;;;;;;4.43;1.17;;;;;;;;;;4976036;28;20041;-78
2022/10/02 05:51:01;;;;;;;3.20;1.20;;;;;;;;;;4988125;28;20034;-77
2022/10/02 05:53:33;;;;;;;4.13;1.20;;;;;;;;;;4986192;28;20044;-78
2022/10/02 05:56:07;;;;;;;3.85;1.58;;;;;;;;;;4972265;28;20556;-77
2022/10/02 05:58:35;;;;;;;3.92;1.42;;;;;;;;;;5002586;28;20064;-77
2022/10/02 06:01:07;;;;;;;3.58;1.00;;;;;;;;;;5001493;28;20053;-78
2022/10/02 06:03:42;;;;;;;4.07;1.42;;;;;;;;;;4976029;28;20041;-79
2022/10/02 06:06:23;;;;;;;4.63;1.20;;;;;;;;;;4986817;28;20116;-79
2022/10/02 06:09:11;;;;;;;3.78;1.33;;;;;;;;;;4970427;28;20446;-79
2022/10/02 06:11:41;;;;;;;6.35;1.30;;;;;;;;;;4978825;28;20042;-78
2022/10/02 06:14:19;;;;;;;3.40;1.30;;;;;;;;;;4972113;28;20049;-79
2022/10/02 06:16:54;;;;;;;5.00;1.38;;;;;;;;;;4984483;28;20516;-79
2022/10/02 06:19:35;;;;;;;3.28;1.30;;;;;;;;;;4972240;28;20137;-79
2022/10/02 06:22:28;;;;;;;5.22;1.40;;;;;;;;;;4976138;28;20044;-79
2022/10/02 06:25:02;;;;;;;3.90;1.42;;;;;;;;;;4980833;28;20112;-79
2022/10/02 06:27:45;;;;;;;3.92;1.40;;;;;;;;;;4985393;28;20049;-79
2022/10/02 06:30:15;;;;;;;4.85;1.55;;;;;;;;;;4984708;28;20446;-79
2022/10/02 06:33:22;;;;;;;5.97;1.42;;;;;;;;;;4983971;28;20034;-79
2022/10/02 06:35:58;;;;;;;;;;;;;;;;;;4989638;28;20049;-79
2022/10/02 06:38:45;;;;;;;5.05;1.48;;;;;;;;;;4985502;28;20463;-79
2022/10/02 06:41:21;;;;;;;4.43;1.55;;;;;;;;;;5000283;28;20100;-79
2022/10/02 06:44:10;;;;;;;4.93;1.33;;;;;;;;;;4985785;28;20037;-79
2022/10/02 06:46:43;;;;;;;2.88;1.25;;;;;;;;;;4991188;28;20509;-79
2022/10/02 06:49:42;;;;;;;6.32;1.63;;;;;;;;;;4981371;28;20490;-79
2022/10/02 06:52:25;;;;;;;3.30;1.58;;;;;;;;;;4987246;28;20118;-80
2022/10/02 06:55:05;;;;;;;8.02;1.80;;;;;;;;;;4987171;28;20037;-79
2022/10/02 06:57:53;;;;;;;6.22;2.08;;;;;;;;;;4984965;28;20600;-79
2022/10/02 07:00:20;;;;;;;3.83;1.80;;;;;;;;;;4998505;28;20034;-79
2022/10/02 07:03:01;;;;;;;4.93;1.92;;;;;;;;;;4976452;28;20564;-80
2022/10/02 07:05:52;;;;;;;5.22;2.00;;;;;;;;;;4984642;28;20034;-79
2022/10/02 07:08:36;;;;;;;5.53;1.85;;;;;;;;;;4990135;28;20502;-79
2022/10/02 07:11:10;;;;;;;5.45;1.95;;;;;;;;;;4975208;28;20046;-78
2022/10/02 07:14:12;;;;;;;5.30;2.35;;;;;;;;;;5006221;28;20104;-79
2022/10/02 07:17:00;;;;;;;5.95;2.15;;;;;;;;;;4987241;28;20096;-79
2022/10/02 07:19:43;;;;;;;4.43;2.05;;;;;;;;;;4987445;28;20037;-79
2022/10/02 07:22:31;;;;;;;8.18;2.28;;;;;;;;;;4986515;28;20044;-79
2022/10/02 07:25:05;;;;;;;5.57;2.00;;;;;;;;;;4990475;28;20042;-79
2022/10/02 07:27:46;;;;;;;5.78;1.95;;;;;;;;;;4977305;28;20038;-79
2022/10/02 07:30:14;;;;;;;6.40;1.85;;;;;;;;;;4963165;28;20062;-78
2022/10/02 07:33:05;;;;;;;8.88;2.28;;;;;;;;;;4985855;28;20593;-79
2022/10/02 07:35:36;;;;;;;6.32;2.28;;;;;;;;;;4987482;28;20442;-79
2022/10/02 07:38:04;;;;;;;4.78;1.80;;;;;;;;;;4990100;28;20481;-79
2022/10/02 07:40:54;;;;;;;5.22;2.15;;;;;;;;;;4984842;28;20158;-78
2022/10/02 07:43:37;;;;;;;5.53;2.00;;;;;;;;;;5005433;28;20561;-78
2022/10/02 07:46:16;;;;;;;6.47;1.90;;;;;;;;;;5003466;28;20044;-80
2022/10/02 07:48:59;;;;;;;4.15;1.50;;;;;;;;;;4989475;28;20057;-80
2022/10/02 07:51:46;;;;;;;5.72;1.83;;;;;;;;;;5003813;28;20042;-79
2022/10/02 07:54:14;;;;;;;4.70;1.80;;;;;;;;;;4986134;28;20132;-79
2022/10/02 07:56:39;;;;;;;6.22;1.70;;;;;;;;;;4992202;28;20049;-80
2022/10/02 07:59:15;;;;;;;6.47;1.80;;;;;;;;;;4966163;28;20256;-80
2022/10/02 08:01:40;;;;;;;4.38;1.50;;;;;;;;;;4989703;28;20496;-79
2022/10/02 08:04:17;;;;;;;5.28;1.80;;;;;;;;;;4989466;28;20084;-80
2022/10/02 08:06:45;;;;;;;6.23;1.70;;;;;;;;;;4987900;28;20124;-79
2022/10/02 08:09:36;;;;;;;3.72;1.50;;;;;;;;;;4990951;28;20715;-79
2022/10/02 08:12:08;;;;;;;5.90;1.80;;;;;;;;;;4987594;28;20042;-82
2022/10/02 08:14:41;;;;;;;6.53;1.90;;;;;;;;;;4981862;28;20065;-82
2022/10/02 08:17:31;;;;;;;5.10;1.52;;;;;;;;;;4972854;28;20121;-83
2022/10/02 08:20:29;;;;;;;5.18;2.22;;;;;;;;;;4974711;28;20586;-82
2022/10/02 08:23:02;;;;;;;5.65;1.88;;;;;;;;;;4990557;28;20064;-82
2022/10/02 08:25:37;;;;;;;6.00;1.77;;;;;;;;;;4975819;28;20121;-82
2022/10/02 08:28:12;;;;;;;7.20;2.10;;;;;;;;;;4964729;28;20103;-83
2022/10/02 08:30:37;;;;;;;5.95;1.95;;;;;;;;;;4981123;28;20049;-83
2022/10/02 08:33:16;;;;;;;4.95;1.63;;;;;;;;;;4969816;28;20034;-82
2022/10/02 08:35:50;;;;;;;4.47;1.50;;;;;;;;;;4987070;28;20042;-83
2022/10/02 08:38:29;;;;;;;6.55;2.10;;;;;;;;;;5003610;28;20481;-82
2022/10/02 08:41:17;;;;;;;5.88;2.20;;;;;;;;;;4978918;28;20113;-83
2022/10/02 08:43:54;;;;;;;6.93;2.30;;;;;;;;;;5006867;28;20057;-82
2022/10/02 08:46:22;;;;;;;4.82;2.33;;;;;;;;;;4993717;28;20034;-82
2022/10/02 08:49:19;;;;;;;6.32;1.95;;;;;;;;;;5008315;28;20507;-83
2022/10/02 08:52:02;;;;;;;5.22;1.80;;;;;;;;;;4979891;28;20092;-82
2022/10/02 08:54:59;;;;;;;7.25;1.85;;;;;;;;;;4986272;28;20073;-82
2022/10/02 08:57:31;;;;;;;6.00;2.25;;;;;;;;;;4986700;28;20034;-83
2022/10/02 09:00:06;;;;;;;7.18;2.35;;;;;;;;;;4987612;28;20042;-83
2022/10/02 09:02:34;;;;;;;6.68;2.40;;;;;;;;;;4990350;28;20253;-83
2022/10/02 09:05:38;;;;;;;5.55;2.50;;;;;;;;;;5003830;28;20077;-83
2022/10/02 09:08:30;;;;;;;4.32;1.60;;;;;;;;;;4969782;28;20096;-84
2022/10/02 09:11:13;;;;;;;6.90;2.05;;;;;;;;;;4988213;28;20133;-83
2022/10/02 09:14:16;;;;;;;5.43;2.20;;;;;;;;;;4994481;28;20049;-84
2022/10/02 09:17:05;;;;;;;5.50;1.92;;;;;;;;;;4995031;28;20042;-82
2022/10/02 09:19:43;;;;;;;8.00;2.20;;;;;;;;;;4973658;28;20505;-83
2022/10/02 09:22:23;;;;;;;6.03;2.08;;;;;;;;;;4988771;28;20084;-83
2022/10/02 09:25:12;;;;;;;5.35;2.13;;;;;;;;;;5004162;28;20481;-82
2022/10/02 09:27:48;;;;;;;7.72;2.28;;;;;;;;;;4972796;28;20042;-83
2022/10/02 09:30:26;;;;;;;6.28;2.17;;;;;;;;;;5005730;28;20070;-83
2022/10/02 09:33:15;;;;;;;5.38;1.83;;;;;;;;;;4978884;28;20101;-83
2022/10/02 09:36:11;;;;;;;4.88;1.65;;;;;;;;;;4989519;28;20073;-83
2022/10/02 09:39:10;;;;;;;4.32;1.63;;;;;;;;;;5002924;28;20501;-83
2022/10/02 09:42:02;;;;;;;5.55;1.95;;;;;;;;;;4987777;28;20038;-81
2022/10/02 09:44:59;;;;;;;7.07;1.90;;;;;;;;;;5005218;28;20119;-81
2022/10/02 09:48:03;;;;;;;5.23;1.87;;;;;;;;;;5003100;28;20100;-81
2022/10/02 09:50:48;;;;;;;5.13;1.70;;;;;;;;;;4989424;28;20156;-80
2022/10/02 09:53:19;;;;;;;7.00;1.77;;;;;;;;;;4964666;28;20049;-82
2022/10/02 09:56:03;;;;;;;4.47;1.45;;;;;;;;;;4977155;28;20552;-80
2022/10/02 09:58:31;;;;;;;4.95;1.80;;;;;;;;;;4977231;28;20074;-80
2022/10/02 10:01:08;;;;;;;6.40;1.88;;;;;;;;;;5002927;28;20037;-80
2022/10/02 10:03:52;;;;;;;5.57;1.52;;;;;;;;;;5004642;28;20073;-80
2022/10/02 10:06:37;;;;;;;6.82;1.60;;;;;;;;;;5004543;28;20029;-80
2022/10/02 10:09:38;;;;;;;5.15;1.77;;;;;;;;;;4991838;28;20038;-81
2022/10/02 10:12:12;;;;;;;4.40;1.35;;;;;;;;;;4990614;28;20124;-81
2022/10/02 10:14:55;;;;;;;6.15;1.40;;;;;;;;;;5003851;28;20076;-81
2022/10/02 10:17:40;;;;;;;4.93;1.25;;;;;;;;;;5000402;28;20044;-81
2022/10/02 10:20:24;;;;;;;4.78;1.88;;;;;;;;;;5004148;28;20089;-81
2022/10/02 10:23:35;;;;;;;4.78;1.80;;;;;;;;;;4987350;28;20064;-81
2022/10/02 10:26:33;;;;;;;6.45;2.28;;;;;;;;;;4952548;28;20077;-81
2022/10/02 10:29:38;;;;;;;3.67;1.88;;;;;;;;;;4993595;28;20038;-81
2022/10/02 10:32:25;;;;;;;5.50;2.60;;;;;;;;;;5000242;28;20764;-80
2022/10/02 10:35:05;;;;;;;6.55;2.85;;;;;;;;;;4971396;28;20034;-81
2022/10/02 10:40:26;;;;;;;4.50;2.22;;;;;;;;;;5004562;28;20121;-85
2022/10/02 10:43:22;;;;;;;5.80;2.95;;;;;;;;;;4984967;28;20561;-81
2022/10/02 10:45:55;;;;;;;7.00;3.37;;;;;;;;;;5001373;28;20486;-82
2022/10/02 10:48:33;;;;;;;7.40;3.40;;;;;;;;;;4989502;28;20120;-80
2022/10/02 10:51:29;;;;;;;6.80;3.17;;;;;;;;;;4986916;28;20045;-81
2022/10/02 10:54:33;;;;;;;6.10;3.15;;;;;;;;;;4989152;28;20041;-80
2022/10/02 10:57:03;;;;;;;7.57;2.80;;;;;;;;;;4983446;28;20057;-81
2022/10/02 10:59:56;;;;;;;6.47;3.05;;;;;;;;;;4988972;28;20381;-82
2022/10/02 11:02:42;;;;;;;5.55;2.10;;;;;;;;;;4998614;28;20397;-81
2022/10/02 11:05:31;;;;;;;4.55;2.10;;;;;;;;;;5000472;28;20069;-81
2022/10/02 11:08:15;;;;;;;3.97;1.92;;;;;;;;;;4971274;28;20049;-83
2022/10/02 11:10:55;;;;;;;4.35;2.33;;;;;;;;;;5000615;28;20034;-83
2022/10/02 11:13:33;;;;;;;6.63;2.40;;;;;;;;;;4991267;28;20029;-84
2022/10/02 11:16:06;;;;;;;5.88;2.75;;;;;;;;;;4986292;28;20647;-83
2022/10/02 11:18:50;;;;;;;6.93;2.65;;;;;;;;;;4977071;28;20038;-84
2022/10/02 11:21:58;;;;;;;5.88;2.83;;;;;;;;;;4973258;28;20125;-84
2022/10/02 11:24:38;;;;;;;7.63;3.30;;;;;;;;;;4952597;28;20034;-85
2022/10/02 11:27:37;;;;;;;7.03;3.45;;;;;;;;;;4963890;28;20092;-86
2022/10/02 11:30:37;;;;;;;4.05;2.42;;;;;;;;;;4962125;28;20034;-85
2022/10/02 11:33:28;;;;;;;3.90;1.95;;;;;;;;;;4990166;28;20069;-85
2022/10/02 11:36:15;;;;;;;4.93;1.92;;;;;;;;;;4903683;29;20039;-85
2022/10/02 11:39:07;;;;;;;4.15;1.80;;;;;;;;;;4919448;29;20066;-82
2022/10/02 11:42:10;;;;;;;3.28;1.75;;;;;;;;;;4919134;29;20047;-82
2022/10/02 11:44:47;;;;;;;2.90;1.40;;;;;;;;;;4902451;29;20047;-82
2022/10/02 11:47:45;;;;;;;5.30;1.67;;;;;;;;;;4918771;29;20035;-81
2022/10/02 11:50:22;;;;;;;2.70;1.17;;;;;;;;;;4919451;29;20103;-82
2022/10/02 11:53:06;;;;;;;5.63;1.67;;;;;;;;;;4922579;29;20519;-82
2022/10/02 11:55:55;;;;;;;4.20;1.58;;;;;;;;;;4922312;29;20043;-81
2022/10/02 11:58:54;;;;;;;4.20;1.85;;;;;;;;;;4926202;29;20087;-81
2022/10/02 12:01:31;;;;;;;3.88;1.83;;;;;;;;;;4924048;29;20043;-81
2022/10/02 12:04:03;;;;;;;3.30;1.83;;;;;;;;;;4923074;29;20405;-82
2022/10/02 12:07:03;;;;;;;3.60;1.77;;;;;;;;;;4920534;29;20279;-82
2022/10/02 12:09:55;;;;;;;5.45;1.90;;;;;;;;;;4882240;29;20047;-81
2022/10/02 12:12:50;;;;;;;5.70;2.42;;;;;;;;;;4944189;28;20980;-81
2022/10/02 12:15:37;;;;;;;4.13;2.20;;;;;;;;;;4988300;28;20065;-81
2022/10/02 12:18:15;;;;;;;3.72;2.00;;;;;;;;;;4973781;28;20046;-81
2022/10/02 12:27:38;;;;;;;7.30;1.95;;;;;;;;;;4957725;28;20058;-81
2022/10/02 12:30:21;;;;;;;5.00;2.20;;;;;;;;;;4957791;28;20613;-81
2022/10/02 12:33:06;;;;;;;4.72;2.45;;;;;;;;;;4972785;28;20046;-81
2022/10/02 12:35:36;;;;;;;4.95;1.70;;;;;;;;;;4978063;28;20042;-81
2022/10/02 12:38:20;;;;;;;4.75;1.90;;;;;;;;;;5004439;28;20097;-81
2022/10/02 12:40:56;;;;;;;6.65;2.00;;;;;;;;;;5005232;28;20042;-82
2022/10/02 12:43:54;;;;;;;4.97;1.80;;;;;;;;;;4988441;28;20037;-81
2022/10/02 12:46:58;;;;;;;6.22;2.00;;;;;;;;;;4989053;28;20073;-81
2022/10/02 12:49:33;;;;;;;4.97;1.65;;;;;;;;;;4989154;28;20041;-82
2022/10/02 12:52:12;;;;;;;3.38;1.40;;;;;;;;;;4989651;28;20120;-82
2022/10/02 12:54:53;;;;;;;5.72;1.77;;;;;;;;;;4976603;28;20045;-81
2022/10/02 12:57:57;;;;;;;5.15;2.08;;;;;;;;;;4987257;28;20050;-81
2022/10/02 13:00:25;;;;;;;3.28;1.52;;;;;;;;;;4987621;28;20045;-82
2022/10/02 13:03:11;;;;;;;5.72;1.63;;;;;;;;;;4989078;28;20501;-81
2022/10/02 13:06:04;;;;;;;4.53;1.80;;;;;;;;;;4988241;28;20038;-81
2022/10/02 13:08:52;;;;;;;4.82;1.70;;;;;;;;;;5004237;28;20363;-81
2022/10/02 13:11:30;;;;;;;3.47;1.48;;;;;;;;;;4972219;28;20056;-81
2022/10/02 13:14:25;;;;;;;4.00;1.73;;;;;;;;;;4969936;28;20081;-81
2022/10/02 13:17:16;;;;;;;6.45;1.80;;;;;;;;;;4988626;28;20049;-80
2022/10/02 13:20:09;;;;;;;3.65;1.55;;;;;;;;;;4976032;28;20053;-81
2022/10/02 13:22:50;;;;;;;3.08;1.40;;;;;;;;;;4978972;28;20046;-82
2022/10/02 13:25:33;;;;;;;5.22;1.60;;;;;;;;;;4977044;28;20038;-81
2022/10/02 13:28:04;;;;;;;3.08;1.45;;;;;;;;;;4974308;28;20064;-82
2022/10/02 13:30:36;;;;;;;4.43;1.80;;;;;;;;;;5004072;28;20072;-81
2022/10/02 13:33:08;;;;;;;3.58;1.67;;;;;;;;;;4972124;28;20034;-81
2022/10/02 13:36:05;;;;;;;5.15;1.20;;;;;;;;;;4971673;28;20037;-81
2022/10/02 13:38:30;;;;;;;;;;;;;;;;;;4977619;28;20132;-81
2022/10/02 13:41:26;;;;;;;3.47;1.03;;;;;;;;;;4988005;28;20008;-81
2022/10/02 13:44:04;;;;;;;4.05;1.10;;;;;;;;;;5004266;28;20034;-81
2022/10/02 13:46:50;;;;;;;4.75;1.15;;;;;;;;;;5003801;28;20556;-81
2022/10/02 13:49:16;;;;;;;3.15;1.00;;;;;;;;;;4991320;28;20057;-82
2022/10/02 13:51:56;;;;;;;4.95;1.23;;;;;;;;;;4984891;28;20654;-81
2022/10/02 13:54:35;;;;;;;2.13;0.80;;;;;;;;;;4970505;28;20397;-81
2022/10/02 13:57:30;;;;;;;4.68;0.90;;;;;;;;;;4999956;28;20565;-80
2022/10/02 14:00:04;;;;;;;3.38;1.00;;;;;;;;;;4984645;28;20045;-80
2022/10/02 14:03:03;;;;;;;3.58;0.90;;;;;;;;;;4968490;28;20060;-80
2022/10/02 14:05:40;;;;;;;1.35;0.52;;;;;;;;;;4988176;28;20430;-81
2022/10/02 14:08:16;;;;;;;3.03;0.82;;;;;;;;;;4972666;28;20029;-80
2022/10/02 14:10:44;;;;;;;2.55;0.75;;;;;;;;;;4971526;28;20049;-80
2022/10/02 14:13:31;;;;;;;3.65;0.70;;;;;;;;;;5003347;28;20041;-81
2022/10/02 14:16:29;;;;;;;2.30;0.63;;;;;;;;;;4982417;28;20046;-81
2022/10/02 14:19:22;;;;;;;3.33;0.82;;;;;;;;;;4984762;28;20037;-80
2022/10/02 14:21:58;;;;;;;2.65;0.60;;;;;;;;;;5000012;28;20107;-81
2022/10/02 14:25:02;;;;;;;2.03;0.60;;;;;;;;;;4987780;28;20034;-81
2022/10/02 14:27:49;;;;;;;3.53;0.63;;;;;;;;;;4983432;28;20517;-81
2022/10/02 14:30:28;;;;;;;1.92;0.63;;;;;;;;;;5001569;28;20035;-81
2022/10/02 14:33:04;;;;;;;2.80;0.50;;;;;;;;;;4985161;28;20104;-81
2022/10/02 14:35:33;;;;;;;1.55;0.50;;;;;;;;;;5001168;28;20683;-80
2022/10/02 14:38:08;;;;;;;2.55;0.52;;;;;;;;;;4986218;28;20113;-81
2022/10/02 14:40:48;;;;;;;2.50;0.70;;;;;;;;;;4967318;28;20100;-80
2022/10/02 14:43:24;;;;;;;3.13;0.63;;;;;;;;;;4987313;28;20040;-81
2022/10/02 14:45:56;;;;;;;2.00;0.55;;;;;;;;;;4958944;28;20034;-80
2022/10/02 14:48:49;;;;;;;2.28;0.50;;;;;;;;;;5001176;28;20041;-81
2022/10/02 14:51:17;;;;;;;1.67;0.40;;;;;;;;;;5001654;28;20034;-80
2022/10/02 14:54:19;;;;;;;2.95;0.63;;;;;;;;;;4983997;28;20660;-81
2022/10/02 14:57:02;;;;;;;3.10;0.70;;;;;;;;;;4985266;28;20096;-81
2022/10/02 14:59:46;;;;;;;2.85;0.50;;;;;;;;;;4976265;28;20042;-81
2022/10/02 15:02:28;;;;;;;4.22;0.73;;;;;;;;;;4975854;28;20454;-81
2022/10/02 15:05:06;;;;;;;3.00;0.75;;;;;;;;;;4971484;28;20056;-81
2022/10/02 15:07:33;;;;;;;2.25;0.47;;;;;;;;;;4987110;28;20046;-81
2022/10/02 15:10:12;;;;;;;1.65;0.60;;;;;;;;;;4974275;28;20033;-81
2022/10/02 15:12:47;;;;;;;2.00;0.68;;;;;;;;;;4987523;28;20121;-81
2022/10/02 15:15:26;;;;;;;5.72;0.77;;;;;;;;;;5001482;28;20060;-81
2022/10/02 15:17:54;;;;;;;3.53;0.93;;;;;;;;;;4985867;28;20038;-81
2022/10/02 15:20:36;;;;;;;3.17;0.50;;;;;;;;;;4987216;28;20056;-81
2022/10/02 15:23:05;;;;;;;2.70;1.23;;;;;;;;;;4970758;28;20375;-81
2022/10/02 15:25:52;;;;;;;2.13;0.57;;;;;;;;;;4985239;28;20044;-81
2022/10/02 15:28:26;;;;;;;3.37;0.60;;;;;;;;;;4981338;28;20038;-81
2022/10/02 15:31:09;;;;;;;3.92;0.90;;;;;;;;;;4988083;28;20522;-81
2022/10/02 15:33:39;;;;;;;2.80;0.60;;;;;;;;;;4972652;28;20038;-81
2022/10/02 15:36:26;;;;;;;2.42;0.70;;;;;;;;;;4990573;28;20119;-82
2022/10/02 15:39:05;;;;;;;3.33;0.90;;;;;;;;;;5004562;28;20038;-81
2022/10/02 15:41:44;;;;;;;3.60;0.70;;;;;;;;;;4976724;28;20042;-81
2022/10/02 15:44:28;;;;;;;3.58;0.70;;;;;;;;;;4995696;28;20105;-81
2022/10/02 15:46:56;;;;;;;4.57;0.90;;;;;;;;;;4986456;28;20088;-81
2022/10/02 15:50:06;;;;;;;3.33;0.90;;;;;;;;;;4995348;28;20442;-81
2022/10/02 15:53:07;;;;;;;2.90;0.80;;;;;;;;;;4891080;29;20492;-81
2022/10/02 15:55:42;;;;;;;2.97;0.70;;;;;;;;;;4975366;28;20072;-81
2022/10/02 15:58:20;;;;;;;2.35;0.73;;;;;;;;;;4974176;28;20034;-80
2022/10/02 16:01:04;;;;;;;2.20;0.50;;;;;;;;;;5002618;28;20571;-79
2022/10/02 16:03:37;;;;;;;3.65;1.13;;;;;;;;;;4978219;28;20060;-81
2022/10/02 16:06:18;;;;;;;5.50;1.50;;;;;;;;;;4987858;28;20033;-81
2022/10/02 16:09:16;;;;;;;3.28;0.80;;;;;;;;;;5006462;28;20034;-81
2022/10/02 16:11:51;;;;;;;2.83;0.75;;;;;;;;;;4979990;28;20041;-81